Aviation Digital Data Service (ADDS)

Output produced by METARs form (1747 UTC 25 March 2019)
found at http://www.aviationweather.gov/metar/data/
 
Forecast for: ZHCC (ZHENGZHOU , CN)
Text: TAF ZHCC 251503Z 2518/2618 24004MPS 8000 NSC TX26/2607Z TN09/2522Z
Forecast period: 1800 UTC 25 March 2019 to 1800 UTC 26 March 2019
Forecast type: FROM: standard forecast or significant change
Winds: from the WSW (240 degrees) at 9 MPH (8 knots; 4.1 m/s)
Visibility: 5 miles (8 km)
Ceiling: unknown
Clouds: missing
Weather: no significant weather forecast for this period